Time,TemperatureF,DewpointF,PressureIn,WindDirection,WindDirectionDegrees,WindSpeedMPH,WindSpeedGustMPH,Humidity,HourlyPrecipIn,Conditions,Clouds,dailyrainin,SoftwareType,DateUTC
2013-02-19 00:30:00,31.0,18.0,-100.00,NW,312,2.0,2.0,58,-99.99,,,-99.99,,2013-02-19 07:30:00,
2013-02-19 01:11:00,31.0,18.0,-100.00,NW,312,2.0,2.0,58,-99.99,,,-99.99,,2013-02-19 08:11:00,
2013-02-19 01:21:00,31.0,18.0,-100.00,NW,312,2.0,2.0,58,-99.99,,,-99.99,,2013-02-19 08:21:00,
2013-02-19 01:30:00,30.0,20.0,-100.00,NW,316,0.0,0.0,66,-99.99,,,-99.99,,2013-02-19 08:30:00,
2013-02-19 02:11:00,30.0,20.0,-100.00,NW,316,0.0,0.0,66,-99.99,,,-99.99,,2013-02-19 09:11:00,
2013-02-19 02:21:00,30.0,20.0,-100.00,NW,316,0.0,0.0,66,-99.99,,,-99.99,,2013-02-19 09:21:00,
2013-02-19 02:30:00,30.0,21.0,-100.00,NW,313,2.0,2.0,68,-99.99,,,-99.99,,2013-02-19 09:30:00,
2013-02-19 03:11:00,30.0,21.0,-100.00,NW,313,2.0,2.0,68,-99.99,,,-99.99,,2013-02-19 10:11:00,
2013-02-19 03:21:00,30.0,21.0,-100.00,NW,313,2.0,2.0,68,-99.99,,,-99.99,,2013-02-19 10:21:00,
2013-02-19 04:30:00,29.0,23.0,-100.00,NNW,348,2.0,2.0,77,-99.99,,,-99.99,,2013-02-19 11:30:00,
2013-02-19 05:12:00,29.0,23.0,-100.00,NNW,348,2.0,2.0,77,-99.99,,,-99.99,,2013-02-19 12:12:00,
2013-02-19 05:21:00,29.0,23.0,-100.00,NNW,348,2.0,2.0,77,-99.99,,,-99.99,,2013-02-19 12:21:00,
2013-02-19 05:30:00,28.0,21.0,-100.00,NW,324,2.0,2.0,74,-99.99,,,-99.99,,2013-02-19 12:30:00,
2013-02-19 06:11:00,28.0,21.0,-100.00,NW,324,2.0,2.0,74,-99.99,,,-99.99,,2013-02-19 13:11:00,
2013-02-19 06:22:00,28.0,21.0,-100.00,NW,324,2.0,2.0,74,-99.99,,,-99.99,,2013-02-19 13:22:00,
2013-02-19 06:30:00,28.0,22.0,-100.00,NNW,338,2.0,2.0,79,-99.99,,,-99.99,,2013-02-19 13:30:00,
2013-02-19 07:11:00,28.0,22.0,-100.00,NNW,338,2.0,2.0,79,-99.99,,,-99.99,,2013-02-19 14:11:00,
2013-02-19 07:21:00,28.0,22.0,-100.00,NNW,338,2.0,2.0,79,-99.99,,,-99.99,,2013-02-19 14:21:00,
2013-02-19 08:11:00,27.0,22.0,-100.00,NW,306,2.0,2.0,81,-99.99,,,-99.99,,2013-02-19 15:11:00,
2013-02-19 11:31:00,32.0,22.0,-100.00,North,353,2.0,2.0,67,-99.99,,,-99.99,,2013-02-19 18:31:00,
2013-02-19 11:41:00,32.0,22.0,-100.00,North,353,2.0,2.0,67,-99.99,,,-99.99,,2013-02-19 18:41:00,
2013-02-19 12:30:00,34.0,25.0,-100.00,NNE,27,2.0,2.0,69,-99.99,,,-99.99,,2013-02-19 19:30:00,
2013-02-19 13:11:00,34.0,25.0,-100.00,NNE,27,2.0,2.0,69,-99.99,,,-99.99,,2013-02-19 20:11:00,
2013-02-19 13:21:00,34.0,25.0,-100.00,NNE,27,2.0,2.0,69,-99.99,,,-99.99,,2013-02-19 20:21:00,
2013-02-19 14:11:00,35.0,24.0,-100.00,NNE,17,0.0,2.0,64,-99.99,,,-99.99,,2013-02-19 21:11:00,
2013-02-19 15:32:00,35.0,22.0,-100.00,East,92,2.0,2.0,59,-99.99,,,-99.99,,2013-02-19 22:32:00,
2013-02-19 15:41:00,35.0,22.0,-100.00,East,92,2.0,2.0,59,-99.99,,,-99.99,,2013-02-19 22:41:00,
2013-02-19 17:31:00,35.0,26.0,-100.00,SSE,148,0.0,0.0,70,-99.99,,,-99.99,,2013-02-20 00:31:00,
2013-02-19 17:41:00,35.0,26.0,-100.00,SSE,148,0.0,0.0,70,-99.99,,,-99.99,,2013-02-20 00:41:00,
2013-02-19 18:30:00,32.0,29.0,-100.00,WSW,251,0.0,0.0,87,-99.99,,,-99.99,,2013-02-20 01:30:00,
2013-02-19 19:11:00,32.0,29.0,-100.00,WSW,251,0.0,0.0,87,-99.99,,,-99.99,,2013-02-20 02:11:00,
2013-02-19 19:21:00,32.0,29.0,-100.00,WSW,251,0.0,0.0,87,-99.99,,,-99.99,,2013-02-20 02:21:00,
2013-02-19 19:30:00,32.0,26.0,-100.00,West,276,0.0,0.0,78,-99.99,,,-99.99,,2013-02-20 02:30:00,
2013-02-19 20:12:00,32.0,26.0,-100.00,West,276,0.0,0.0,78,-99.99,,,-99.99,,2013-02-20 03:12:00,
2013-02-19 20:21:00,32.0,26.0,-100.00,West,276,0.0,0.0,78,-99.99,,,-99.99,,2013-02-20 03:21:00,
2013-02-19 21:31:00,32.0,26.0,-100.00,NW,310,0.0,0.0,79,-99.99,,,-99.99,,2013-02-20 04:31:00,
2013-02-19 21:41:00,32.0,26.0,-100.00,NW,310,0.0,0.0,79,-99.99,,,-99.99,,2013-02-20 04:41:00,
2013-02-19 22:30:00,31.0,27.0,-100.00,NW,316,0.0,2.0,86,-99.99,,,-99.99,,2013-02-20 05:30:00,
2013-02-19 23:11:00,31.0,27.0,-100.00,NW,316,0.0,2.0,86,-99.99,,,-99.99,,2013-02-20 06:11:00,
2013-02-19 23:21:00,31.0,27.0,-100.00,NW,316,0.0,2.0,86,-99.99,,,-99.99,,2013-02-20 06:21:00,